Time;durP1;ratioP1;P1;durP2;ratioP2;P2;SDS_P1;SDS_P2;PMS_P1;PMS_P2;Temp;Humidity;BMP_temperature;BMP_pressure;BME280_temperature;BME280_humidity;BME280_pressure;Samples;Min_cycle;Max_cycle;Signal;HPM_P1;HPM_P2
2022/11/16 00:05:20;;;;;;;155.50;94.30;;;;;;;6.99;100.00;98276.47;4156113;84;21099;-85
2022/11/16 00:11:22;;;;;;;157.55;92.88;;;;;;;7.02;100.00;98279.81;4157790;84;21070;-85
2022/11/16 00:17:36;;;;;;;149.40;90.30;;;;;;;7.04;100.00;98267.20;4179779;84;21041;-85
2022/11/16 00:24:05;;;;;;;149.02;91.28;;;;;;;7.06;100.00;98258.09;4173130;83;21133;-85
2022/11/16 00:30:34;;;;;;;171.30;101.00;;;;;;;7.07;100.00;98248.20;4166570;84;21066;-85
2022/11/16 00:36:59;;;;;;;174.53;107.00;;;;;;;7.03;100.00;98245.23;4121703;84;21089;-85
2022/11/16 00:50:46;;;;;;;173.13;101.27;;;;;;;7.05;100.00;98246.98;4158079;84;21062;-85
2022/11/16 00:57:16;;;;;;;156.47;99.25;;;;;;;7.05;100.00;98249.70;4151360;84;21070;-84
2022/11/16 01:03:19;;;;;;;167.47;101.80;;;;;;;7.09;100.00;98239.09;4168674;84;20998;-85
2022/11/16 01:15:59;;;;;;;170.15;104.25;;;;;;;7.06;100.00;98238.48;4133145;84;21065;-85
2022/11/16 01:22:00;;;;;;;204.72;119.17;;;;;;;7.10;100.00;98227.61;4155594;84;22013;-85
2022/11/16 01:28:03;;;;;;;198.87;121.15;;;;;;;7.13;100.00;98224.14;4155536;84;21078;-86
2022/11/16 01:34:30;;;;;;;196.37;114.10;;;;;;;7.15;100.00;98220.48;4076618;86;21054;-84
2022/11/16 01:40:57;;;;;;;182.65;111.12;;;;;;;7.16;100.00;98213.88;3965021;88;21137;-84
2022/11/16 01:54:36;;;;;;;192.55;112.62;;;;;;;7.18;100.00;98196.61;4012386;88;21578;-85
2022/11/16 02:01:24;;;;;;;177.03;107.30;;;;;;;7.20;100.00;98192.94;3944459;87;21461;-85
2022/11/16 02:42:01;;;;;;;172.02;103.70;;;;;;;7.19;100.00;98144.52;4177495;84;21026;-84
2022/11/16 03:15:17;;;;;;;180.60;107.85;;;;;;;7.16;100.00;98099.56;4172526;84;21038;-85
2022/11/16 03:42:17;;;;;;;152.65;90.30;;;;;;;7.19;100.00;98106.41;4070642;86;21088;-84
2022/11/16 03:48:39;;;;;;;158.10;92.00;;;;;;;7.22;100.00;98103.54;4008597;89;21019;-85
2022/11/16 04:28:32;;;;;;;194.47;114.97;;;;;;;7.29;100.00;98068.20;4158708;84;21773;-84
2022/11/16 04:40:57;;;;;;;184.52;112.00;;;;;;;7.31;100.00;98065.30;4139786;84;21082;-85
2022/11/16 04:47:23;;;;;;;194.02;113.88;;;;;;;7.28;100.00;98051.67;4061823;87;21172;-84
2022/11/16 04:54:01;;;;;;;170.90;102.75;;;;;;;7.28;100.00;98056.52;4002935;87;21751;-84
2022/11/16 05:07:45;;;;;;;155.32;89.55;;;;;;;7.37;100.00;98043.97;4074309;85;21076;-85
2022/11/16 05:13:56;;;;;;;159.95;95.77;;;;;;;7.41;100.00;98037.96;4082895;85;22417;-85
2022/11/16 05:41:03;;;;;;;151.05;89.03;;;;;;;7.40;100.00;98034.48;4122252;84;21027;-85
2022/11/16 05:47:23;;;;;;;152.32;91.42;;;;;;;7.41;100.00;98033.87;4140746;84;21058;-85
2022/11/16 06:00:31;;;;;;;154.95;87.30;;;;;;;7.43;100.00;98024.77;4191088;84;21085;-85
2022/11/16 06:06:50;;;;;;;152.43;88.20;;;;;;;7.42;100.00;98020.48;4152276;84;21074;-85
2022/11/16 06:13:02;;;;;;;140.20;85.20;;;;;;;7.37;100.00;98019.47;4160771;84;21022;-84
2022/11/16 06:19:03;;;;;;;142.60;86.12;;;;;;;7.39;100.00;98022.00;4153619;84;21070;-85
2022/11/16 06:25:25;;;;;;;145.40;88.27;;;;;;;7.43;100.00;98021.47;4169631;84;21085;-85
2022/11/16 06:38:46;;;;;;;149.95;87.45;;;;;;;7.51;100.00;98013.56;4123145;84;21102;-85
2022/11/16 06:45:05;;;;;;;146.22;88.00;;;;;;;7.56;100.00;98014.55;4169899;84;21034;-85
2022/11/16 07:05:30;;;;;;;125.60;75.22;;;;;;;7.64;100.00;97983.48;4012914;87;21060;-85
2022/11/16 07:11:42;;;;;;;154.07;91.60;;;;;;;7.74;100.00;97976.53;3988113;86;21052;-85
2022/11/16 07:17:54;;;;;;;146.40;87.33;;;;;;;7.79;100.00;97974.81;4159074;84;21033;-85
2022/11/16 07:24:12;;;;;;;127.80;76.92;;;;;;;7.79;100.00;97966.64;4153615;84;21017;-85
2022/11/16 07:37:18;;;;;;;132.47;73.97;;;;;;;7.90;100.00;97955.22;4170156;84;21073;-85
2022/11/16 07:43:21;;;;;;;127.58;68.95;;;;;;;7.93;100.00;97955.25;4146388;84;21125;-85
2022/11/16 07:49:47;;;;;;;113.47;62.57;;;;;;;7.99;100.00;97954.28;4088483;84;21069;-85
2022/11/16 07:56:15;;;;;;;;;;;;;;;8.03;100.00;97950.22;4065908;87;20997;-84
2022/11/16 08:02:18;;;;;;;116.30;59.88;;;;;;;8.05;100.00;97956.08;4061855;85;20126;-85
2022/11/16 08:15:00;;;;;;;128.25;70.37;;;;;;;8.03;100.00;97968.13;4294131;81;21012;-83
2022/11/16 08:21:06;;;;;;;130.50;71.05;;;;;;;7.99;100.00;97973.36;4253331;82;21091;-84
2022/11/16 08:27:08;;;;;;;154.27;75.40;;;;;;;7.96;100.00;97975.48;4305086;81;21047;-85
2022/11/16 08:40:39;;;;;;;143.78;72.10;;;;;;;7.82;100.00;97972.13;4275787;81;21014;-85
2022/11/16 08:47:06;;;;;;;123.02;63.40;;;;;;;7.67;100.00;97962.89;4331515;81;21897;-86
2022/11/16 09:00:33;;;;;;;102.53;52.93;;;;;;;7.42;100.00;97974.95;4168389;83;21141;-85
2022/11/16 09:07:04;;;;;;;96.75;50.90;;;;;;;7.38;100.00;97978.25;4188599;83;21637;-85
2022/11/16 09:13:13;;;;;;;89.03;49.95;;;;;;;7.34;100.00;97974.73;4203245;83;21165;-85
2022/11/16 09:19:57;;;;;;;77.17;42.93;;;;;;;7.30;100.00;97957.57;4181060;83;21698;-85
2022/11/16 09:33:23;;;;;;;54.15;29.65;;;;;;;7.26;100.00;97949.97;4326947;80;21015;-86
2022/11/16 10:08:44;;;;;;;34.92;20.35;;;;;;;6.91;100.00;97914.88;4326530;81;21007;-84
2022/11/16 10:15:08;;;;;;;35.85;21.95;;;;;;;6.87;100.00;97907.28;4259599;82;21024;-84
2022/11/16 10:21:36;;;;;;;31.97;19.32;;;;;;;6.89;100.00;97893.48;4232106;83;21055;-85
2022/11/16 10:28:23;;;;;;;33.90;20.52;;;;;;;6.91;100.00;97883.02;4131238;84;21028;-84
2022/11/16 10:34:43;;;;;;;29.57;18.48;;;;;;;6.95;100.00;97880.33;4127443;84;21163;-83
2022/11/16 10:48:59;;;;;;;27.05;16.73;;;;;;;6.94;100.00;97880.91;4095831;85;21564;-84
2022/11/16 11:02:15;;;;;;;22.70;14.55;;;;;;;6.92;100.00;97879.73;4142756;84;21040;-84
2022/11/16 11:15:09;;;;;;;27.30;16.75;;;;;;;6.81;100.00;97876.14;4318378;81;21066;-84
2022/11/16 11:21:21;;;;;;;23.00;14.38;;;;;;;6.75;100.00;97866.17;4283729;81;21019;-84
2022/11/16 11:34:38;;;;;;;22.75;16.07;;;;;;;6.68;100.00;97867.49;4111182;84;20985;-83
2022/11/16 11:48:14;;;;;;;29.98;16.85;;;;;;;6.67;100.00;97855.03;3977405;87;21134;-84
2022/11/16 12:52:02;;;;;;;20.00;12.28;;;;;;;6.38;100.00;97824.70;4193925;83;21033;-86
2022/11/16 12:58:32;;;;;;;14.15;10.25;;;;;;;6.32;100.00;97828.35;4177881;83;21043;-86
2022/11/16 13:19:07;;;;;;;10.48;7.87;;;;;;;6.24;100.00;97809.62;4117946;85;21078;-86
2022/11/16 13:25:43;;;;;;;9.90;6.97;;;;;;;6.21;100.00;97811.16;4212216;82;21071;-86
2022/11/16 14:36:10;;;;;;;11.35;8.10;;;;;;;5.85;100.00;97798.39;4087275;85;21075;-84
2022/11/16 14:56:14;;;;;;;12.13;7.70;;;;;;;5.75;100.00;97797.66;4559135;75;22858;-86
2022/11/16 15:02:25;;;;;;;9.95;6.70;;;;;;;5.64;100.00;97802.19;4539832;76;20987;-87
2022/11/16 15:09:02;;;;;;;10.20;6.90;;;;;;;5.64;100.00;97805.47;4545527;77;21004;-86
2022/11/16 15:15:14;;;;;;;9.03;6.13;;;;;;;5.62;100.00;97794.98;4579017;75;20998;-86
2022/11/16 15:21:21;;;;;;;8.88;5.55;;;;;;;5.60;100.00;97793.23;4524935;76;21892;-86
2022/11/16 15:27:45;;;;;;;9.88;6.00;;;;;;;5.61;100.00;97781.77;4503965;77;21051;-86
2022/11/16 15:47:24;;;;;;;12.90;8.68;;;;;;;5.60;100.00;97781.58;4507172;77;21102;-88
2022/11/16 15:53:41;;;;;;;9.15;6.40;;;;;;;5.57;100.00;97778.25;4495474;77;22343;-87
2022/11/16 15:59:53;;;;;;;7.87;5.83;;;;;;;5.56;100.00;97774.75;4498572;77;21028;-86
2022/11/16 16:05:55;;;;;;;7.05;5.50;;;;;;;5.54;100.00;97781.71;4514503;77;21008;-86
2022/11/16 16:18:39;;;;;;;9.75;6.40;;;;;;;5.49;100.00;97781.47;4453187;78;21039;-86
2022/11/16 16:24:45;;;;;;;8.83;7.08;;;;;;;5.50;100.00;97779.52;4480926;77;21014;-85
2022/11/16 16:30:51;;;;;;;13.62;8.03;;;;;;;5.48;100.00;97780.48;4470633;77;21021;-86
2022/11/16 16:36:56;;;;;;;13.07;9.40;;;;;;;5.47;100.00;97776.98;4448010;77;21052;-85
2022/11/16 16:42:57;;;;;;;23.62;13.30;;;;;;;5.47;100.00;97776.98;4454689;77;21602;-87
2022/11/16 16:49:00;;;;;;;16.32;9.10;;;;;;;5.46;100.00;97779.50;4432467;77;21504;-89
2022/11/16 16:55:02;;;;;;;12.33;7.30;;;;;;;5.42;100.00;97773.23;4453913;77;21007;-85
2022/11/16 17:01:53;;;;;;;13.50;9.33;;;;;;;5.43;100.00;97770.74;4471372;77;21556;-86
2022/11/16 17:14:07;;;;;;;11.80;7.55;;;;;;;5.40;100.00;97766.05;4490721;78;21020;-87
2022/11/16 17:20:10;;;;;;;11.03;7.30;;;;;;;5.38;100.00;97764.28;4479556;77;21361;-86
2022/11/16 17:26:12;;;;;;;13.72;8.33;;;;;;;5.35;100.00;97766.38;4465604;77;21036;-87
2022/11/16 17:32:31;;;;;;;10.58;7.37;;;;;;;5.36;100.00;97767.93;4467351;77;21066;-86
2022/11/16 17:38:34;;;;;;;14.28;6.55;;;;;;;5.31;100.00;97772.32;4491893;77;20984;-87
2022/11/16 17:44:44;;;;;;;10.43;6.20;;;;;;;5.26;100.00;97782.73;4451457;77;21005;-86
2022/11/16 17:57:41;;;;;;;8.40;6.00;;;;;;;5.13;100.00;97781.39;4481212;77;21014;-86
2022/11/16 18:03:43;;;;;;;10.30;6.75;;;;;;;5.10;100.00;97790.27;4334558;77;9999546;-86
2022/11/16 18:09:46;;;;;;;9.35;5.97;;;;;;;5.08;100.00;97783.06;4448486;77;21034;-86
2022/11/16 18:15:48;;;;;;;11.57;6.72;;;;;;;4.98;100.00;97785.08;4476693;77;21885;-88
2022/11/16 18:21:49;;;;;;;13.22;8.25;;;;;;;4.92;100.00;97787.91;4488168;77;20992;-87
2022/11/16 18:28:28;;;;;;;11.22;7.97;;;;;;;4.87;100.00;97786.86;4493051;77;21019;-86
2022/11/16 18:34:30;;;;;;;12.10;6.72;;;;;;;4.85;100.00;97787.23;4459324;77;21059;-86
2022/11/16 18:40:44;;;;;;;9.95;5.75;;;;;;;4.75;100.00;97795.98;4514993;77;20963;-86
2022/11/16 18:47:01;;;;;;;12.70;6.47;;;;;;;4.64;100.00;97794.47;4463918;77;21978;-86
2022/11/16 18:53:15;;;;;;;;;;;;;;;4.55;100.00;97787.74;4439985;77;22074;-86
2022/11/16 18:59:17;;;;;;;7.78;5.25;;;;;;;4.48;100.00;97790.33;4470055;77;20102;-88
2022/11/16 19:05:19;;;;;;;12.45;6.20;;;;;;;4.40;100.00;97796.22;4349431;77;10000264;-87
2022/11/16 19:11:20;;;;;;;9.55;5.83;;;;;;;4.33;100.00;97790.70;4474268;77;21026;-89
2022/11/16 19:17:58;;;;;;;9.53;5.75;;;;;;;4.25;100.00;97798.50;4441407;77;20989;-86
2022/11/16 19:31:19;;;;;;;11.08;5.45;;;;;;;4.11;100.00;97800.97;4423316;80;22022;-86
2022/11/16 19:37:58;;;;;;;10.50;5.50;;;;;;;4.00;100.00;97801.35;4524190;78;21030;-87
2022/11/16 19:44:03;;;;;;;8.08;5.35;;;;;;;3.95;100.00;97802.20;4461504;78;20936;-86
2022/11/16 19:50:11;;;;;;;9.90;6.25;;;;;;;3.88;100.00;97798.83;4427275;78;20992;-86
2022/11/16 20:09:30;;;;;;;8.95;5.08;;;;;;;3.69;100.00;97791.30;4557049;76;21405;-88
2022/11/16 20:15:32;;;;;;;11.08;5.55;;;;;;;3.61;100.00;97800.42;4470318;77;21016;-89
2022/11/16 20:21:42;;;;;;;10.10;5.53;;;;;;;3.50;100.00;97806.98;4489566;77;20979;-88
2022/11/16 20:27:50;;;;;;;9.75;5.17;;;;;;;3.42;100.00;97814.75;4499969;77;21052;-87
2022/11/16 20:41:04;;;;;;;8.95;4.72;;;;;;;3.26;100.00;97814.02;4272765;82;21052;-86
2022/11/16 20:47:05;;;;;;;9.75;4.67;;;;;;;3.17;100.00;97814.80;4258710;81;20999;-88
2022/11/16 20:53:06;;;;;;;10.75;5.37;;;;;;;3.11;100.00;97814.88;4226289;77;21050;-87
2022/11/16 21:33:46;;;;;;;4.47;2.98;;;;;;;2.80;100.00;97803.56;4533103;77;21000;-86
2022/11/16 21:46:24;;;;;;;4.97;2.83;;;;;;;2.80;100.00;97786.00;4431845;78;21026;-86
2022/11/16 21:52:25;;;;;;;4.72;2.80;;;;;;;2.78;100.00;97784.24;4488670;77;21034;-87
2022/11/16 21:58:27;;;;;;;7.72;4.10;;;;;;;2.77;100.00;97783.24;4471707;77;21113;-87
2022/11/16 22:10:57;;;;;;;6.70;3.77;;;;;;;2.81;100.00;97810.56;4487170;77;21015;-87
2022/11/16 22:16:58;;;;;;;4.45;3.33;;;;;;;2.82;100.00;97808.62;4478096;77;21042;-87
2022/11/16 22:22:59;;;;;;;5.62;3.58;;;;;;;2.83;100.00;97807.50;4504403;77;21577;-86
2022/11/16 22:29:02;;;;;;;5.58;3.17;;;;;;;2.81;100.00;97798.40;4496978;77;20959;-86
2022/11/16 22:35:23;;;;;;;4.70;3.25;;;;;;;2.78;100.00;97796.41;4514151;77;21068;-87
2022/11/16 22:48:35;;;;;;;10.80;3.33;;;;;;;2.72;100.00;97791.62;4470308;77;21783;-86
2022/11/16 22:54:51;;;;;;;5.58;3.47;;;;;;;2.68;100.00;97805.59;4510358;77;21688;-87
2022/11/16 23:07:33;;;;;;;5.47;3.77;;;;;;;2.65;100.00;97807.09;4512012;77;21040;-87
2022/11/16 23:32:51;;;;;;;6.17;3.83;;;;;;;2.58;100.00;97794.80;4553487;76;21032;-87
2022/11/16 23:39:13;;;;;;;7.12;4.20;;;;;;;2.55;100.00;97781.20;4525682;75;21003;-87
2022/11/16 23:45:15;;;;;;;5.95;3.30;;;;;;;2.51;100.00;97783.81;4600511;75;20979;-87
2022/11/16 23:51:18;;;;;;;5.08;3.50;;;;;;;2.44;100.00;97770.16;4587873;76;21062;-87
2022/11/16 23:57:28;;;;;;;6.00;3.87;;;;;;;2.39;100.00;97773.68;4543665;75;21037;-86
